sensor_id;sensor_type;location;lat;lon;timestamp;temperature;humidity
7704;DHT22;3894;49.700;10.770;2023-11-18T00:01:16;2.20;99.90
7704;DHT22;3894;49.700;10.770;2023-11-18T00:03:42;2.20;99.90
7704;DHT22;3894;49.700;10.770;2023-11-18T00:06:07;2.10;99.90
7704;DHT22;3894;49.700;10.770;2023-11-18T00:08:34;2.20;99.90
7704;DHT22;3894;49.700;10.770;2023-11-18T00:10:59;2.20;99.90
7704;DHT22;3894;49.700;10.770;2023-11-18T00:13:25;2.20;99.90
7704;DHT22;3894;49.700;10.770;2023-11-18T00:15:52;2.10;99.90
7704;DHT22;3894;49.700;10.770;2023-11-18T00:18:18;2.10;99.90
7704;DHT22;3894;49.700;10.770;2023-11-18T00:20:44;2.00;99.90
7704;DHT22;3894;49.700;10.770;2023-11-18T00:23:10;2.00;99.90
7704;DHT22;3894;49.700;10.770;2023-11-18T00:25:35;1.90;99.90
7704;DHT22;3894;49.700;10.770;2023-11-18T00:28:02;1.90;99.90
7704;DHT22;3894;49.700;10.770;2023-11-18T00:30:27;2.00;99.90
7704;DHT22;3894;49.700;10.770;2023-11-18T00:32:53;2.00;99.90
7704;DHT22;3894;49.700;10.770;2023-11-18T00:35:19;2.10;99.90
7704;DHT22;3894;49.700;10.770;2023-11-18T00:37:45;2.10;99.90
7704;DHT22;3894;49.700;10.770;2023-11-18T00:40:10;2.10;99.90
7704;DHT22;3894;49.700;10.770;2023-11-18T00:42:37;2.10;99.90
7704;DHT22;3894;49.700;10.770;2023-11-18T00:45:04;2.10;99.90
7704;DHT22;3894;49.700;10.770;2023-11-18T00:47:30;2.10;99.90
7704;DHT22;3894;49.700;10.770;2023-11-18T00:49:55;2.20;99.90
7704;DHT22;3894;49.700;10.770;2023-11-18T00:52:23;2.10;99.90
7704;DHT22;3894;49.700;10.770;2023-11-18T00:54:48;2.10;99.90
7704;DHT22;3894;49.700;10.770;2023-11-18T00:57:14;2.10;99.90
7704;DHT22;3894;49.700;10.770;2023-11-18T00:59:44;2.10;99.90
7704;DHT22;3894;49.700;10.770;2023-11-18T01:02:10;2.10;99.90
7704;DHT22;3894;49.700;10.770;2023-11-18T01:04:35;2.10;99.90
7704;DHT22;3894;49.700;10.770;2023-11-18T01:07:01;2.10;99.90
7704;DHT22;3894;49.700;10.770;2023-11-18T01:09:28;2.10;99.90
7704;DHT22;3894;49.700;10.770;2023-11-18T01:11:53;2.10;99.90
7704;DHT22;3894;49.700;10.770;2023-11-18T01:14:19;2.10;99.90
7704;DHT22;3894;49.700;10.770;2023-11-18T01:16:47;2.00;99.90
7704;DHT22;3894;49.700;10.770;2023-11-18T01:19:13;1.90;99.90
7704;DHT22;3894;49.700;10.770;2023-11-18T01:21:39;1.80;99.90
7704;DHT22;3894;49.700;10.770;2023-11-18T01:24:05;1.70;99.90
7704;DHT22;3894;49.700;10.770;2023-11-18T01:26:31;1.60;99.90
7704;DHT22;3894;49.700;10.770;2023-11-18T01:28:57;1.50;99.90
7704;DHT22;3894;49.700;10.770;2023-11-18T01:31:23;1.40;99.90
7704;DHT22;3894;49.700;10.770;2023-11-18T01:33:48;1.30;99.90
7704;DHT22;3894;49.700;10.770;2023-11-18T01:36:15;1.20;99.90
7704;DHT22;3894;49.700;10.770;2023-11-18T01:38:41;1.10;99.90
7704;DHT22;3894;49.700;10.770;2023-11-18T01:41:07;1.00;99.90
7704;DHT22;3894;49.700;10.770;2023-11-18T01:43:34;1.00;99.90
7704;DHT22;3894;49.700;10.770;2023-11-18T01:46:03;1.00;99.90
7704;DHT22;3894;49.700;10.770;2023-11-18T01:48:29;1.10;99.90
7704;DHT22;3894;49.700;10.770;2023-11-18T01:50:57;1.20;99.90
7704;DHT22;3894;49.700;10.770;2023-11-18T01:53:23;1.20;99.90
7704;DHT22;3894;49.700;10.770;2023-11-18T01:55:50;1.30;99.90
7704;DHT22;3894;49.700;10.770;2023-11-18T01:58:16;1.30;99.90
7704;DHT22;3894;49.700;10.770;2023-11-18T02:00:45;1.30;99.90
7704;DHT22;3894;49.700;10.770;2023-11-18T02:03:12;1.40;99.90
7704;DHT22;3894;49.700;10.770;2023-11-18T02:05:38;1.40;99.90
7704;DHT22;3894;49.700;10.770;2023-11-18T02:08:04;1.40;99.90
7704;DHT22;3894;49.700;10.770;2023-11-18T02:10:33;1.40;99.90
7704;DHT22;3894;49.700;10.770;2023-11-18T02:13:10;1.50;99.90
7704;DHT22;3894;49.700;10.770;2023-11-18T02:15:39;1.50;99.90
7704;DHT22;3894;49.700;10.770;2023-11-18T02:18:06;1.40;99.90
7704;DHT22;3894;49.700;10.770;2023-11-18T02:20:36;1.30;99.90
7704;DHT22;3894;49.700;10.770;2023-11-18T02:23:02;1.30;99.90
7704;DHT22;3894;49.700;10.770;2023-11-18T02:25:28;1.40;99.90
7704;DHT22;3894;49.700;10.770;2023-11-18T02:27:55;1.40;99.90
7704;DHT22;3894;49.700;10.770;2023-11-18T02:30:21;1.40;99.90
7704;DHT22;3894;49.700;10.770;2023-11-18T02:32:59;1.40;99.90
7704;DHT22;3894;49.700;10.770;2023-11-18T02:35:27;1.40;99.90
7704;DHT22;3894;49.700;10.770;2023-11-18T02:37:54;1.40;99.90
7704;DHT22;3894;49.700;10.770;2023-11-18T02:40:37;1.30;99.90
7704;DHT22;3894;49.700;10.770;2023-11-18T02:43:06;1.30;99.90
7704;DHT22;3894;49.700;10.770;2023-11-18T02:45:34;1.30;99.90
7704;DHT22;3894;49.700;10.770;2023-11-18T02:48:01;1.30;99.90
7704;DHT22;3894;49.700;10.770;2023-11-18T02:50:27;1.30;99.90
7704;DHT22;3894;49.700;10.770;2023-11-18T02:52:53;1.30;99.90
7704;DHT22;3894;49.700;10.770;2023-11-18T02:55:19;1.20;99.90
7704;DHT22;3894;49.700;10.770;2023-11-18T02:57:48;1.30;99.90
7704;DHT22;3894;49.700;10.770;2023-11-18T03:00:14;1.20;99.90
7704;DHT22;3894;49.700;10.770;2023-11-18T03:02:50;1.20;99.90
7704;DHT22;3894;49.700;10.770;2023-11-18T03:05:20;1.10;99.90
7704;DHT22;3894;49.700;10.770;2023-11-18T03:07:49;1.10;99.90
7704;DHT22;3894;49.700;10.770;2023-11-18T03:10:19;1.00;99.90
7704;DHT22;3894;49.700;10.770;2023-11-18T03:12:52;1.00;99.90
7704;DHT22;3894;49.700;10.770;2023-11-18T03:15:18;1.10;99.90
7704;DHT22;3894;49.700;10.770;2023-11-18T03:17:48;1.10;99.90
7704;DHT22;3894;49.700;10.770;2023-11-18T03:20:15;1.10;99.90
7704;DHT22;3894;49.700;10.770;2023-11-18T03:22:45;1.10;99.90
7704;DHT22;3894;49.700;10.770;2023-11-18T03:25:15;1.00;99.90
7704;DHT22;3894;49.700;10.770;2023-11-18T03:27:42;1.00;99.90
7704;DHT22;3894;49.700;10.770;2023-11-18T03:30:09;1.00;99.90
7704;DHT22;3894;49.700;10.770;2023-11-18T03:32:38;1.00;99.90
7704;DHT22;3894;49.700;10.770;2023-11-18T03:35:06;1.00;99.90
7704;DHT22;3894;49.700;10.770;2023-11-18T03:37:35;0.90;99.90
7704;DHT22;3894;49.700;10.770;2023-11-18T03:40:01;0.90;99.90
7704;DHT22;3894;49.700;10.770;2023-11-18T03:42:26;0.90;99.90
7704;DHT22;3894;49.700;10.770;2023-11-18T03:44:52;0.90;99.90
7704;DHT22;3894;49.700;10.770;2023-11-18T03:47:18;0.90;99.90
7704;DHT22;3894;49.700;10.770;2023-11-18T03:49:44;0.90;99.90
7704;DHT22;3894;49.700;10.770;2023-11-18T03:52:09;0.90;99.90
7704;DHT22;3894;49.700;10.770;2023-11-18T03:54:35;0.90;99.90
7704;DHT22;3894;49.700;10.770;2023-11-18T03:57:01;0.80;99.90
7704;DHT22;3894;49.700;10.770;2023-11-18T03:59:26;0.80;99.90
7704;DHT22;3894;49.700;10.770;2023-11-18T04:01:52;0.80;99.90
7704;DHT22;3894;49.700;10.770;2023-11-18T04:04:18;0.80;99.90
7704;DHT22;3894;49.700;10.770;2023-11-18T04:06:44;0.80;99.90
7704;DHT22;3894;49.700;10.770;2023-11-18T04:09:12;0.80;99.90
7704;DHT22;3894;49.700;10.770;2023-11-18T04:11:38;0.70;99.90
7704;DHT22;3894;49.700;10.770;2023-11-18T04:14:04;0.70;99.90
7704;DHT22;3894;49.700;10.770;2023-11-18T04:16:29;0.60;99.90
7704;DHT22;3894;49.700;10.770;2023-11-18T04:18:55;0.60;99.90
7704;DHT22;3894;49.700;10.770;2023-11-18T04:21:21;0.60;99.90
7704;DHT22;3894;49.700;10.770;2023-11-18T04:23:46;0.60;99.90
7704;DHT22;3894;49.700;10.770;2023-11-18T04:26:12;0.60;99.90
7704;DHT22;3894;49.700;10.770;2023-11-18T04:28:38;0.60;99.90
7704;DHT22;3894;49.700;10.770;2023-11-18T04:31:04;0.60;99.90
7704;DHT22;3894;49.700;10.770;2023-11-18T04:33:30;0.70;99.90
7704;DHT22;3894;49.700;10.770;2023-11-18T04:35:57;0.60;99.90
7704;DHT22;3894;49.700;10.770;2023-11-18T04:38:23;0.60;99.90
7704;DHT22;3894;49.700;10.770;2023-11-18T04:40:49;0.60;99.90
7704;DHT22;3894;49.700;10.770;2023-11-18T04:43:15;0.60;99.90
7704;DHT22;3894;49.700;10.770;2023-11-18T04:45:42;0.50;99.90
7704;DHT22;3894;49.700;10.770;2023-11-18T04:48:08;0.50;99.90
7704;DHT22;3894;49.700;10.770;2023-11-18T04:50:34;0.50;99.90
7704;DHT22;3894;49.700;10.770;2023-11-18T04:53:00;0.50;99.90
7704;DHT22;3894;49.700;10.770;2023-11-18T04:55:25;0.50;99.90
7704;DHT22;3894;49.700;10.770;2023-11-18T04:57:54;0.50;99.90
7704;DHT22;3894;49.700;10.770;2023-11-18T05:00:20;0.50;99.90
7704;DHT22;3894;49.700;10.770;2023-11-18T05:02:47;0.60;99.90
7704;DHT22;3894;49.700;10.770;2023-11-18T05:05:14;0.60;99.90
7704;DHT22;3894;49.700;10.770;2023-11-18T05:07:41;0.60;99.90
7704;DHT22;3894;49.700;10.770;2023-11-18T05:10:07;0.60;99.90
7704;DHT22;3894;49.700;10.770;2023-11-18T05:12:36;0.60;99.90
7704;DHT22;3894;49.700;10.770;2023-11-18T05:15:05;0.60;99.90
7704;DHT22;3894;49.700;10.770;2023-11-18T05:17:33;0.60;99.90
7704;DHT22;3894;49.700;10.770;2023-11-18T05:20:01;0.60;99.90
7704;DHT22;3894;49.700;10.770;2023-11-18T05:22:27;0.60;99.90
7704;DHT22;3894;49.700;10.770;2023-11-18T05:24:53;0.60;99.90
7704;DHT22;3894;49.700;10.770;2023-11-18T05:27:18;0.60;99.90
7704;DHT22;3894;49.700;10.770;2023-11-18T05:29:44;0.60;99.90
7704;DHT22;3894;49.700;10.770;2023-11-18T05:32:22;0.60;99.90
7704;DHT22;3894;49.700;10.770;2023-11-18T05:34:51;0.60;99.90
7704;DHT22;3894;49.700;10.770;2023-11-18T05:37:19;0.60;99.90
7704;DHT22;3894;49.700;10.770;2023-11-18T05:39:45;0.60;99.90
7704;DHT22;3894;49.700;10.770;2023-11-18T05:42:11;0.60;99.90
7704;DHT22;3894;49.700;10.770;2023-11-18T05:44:37;0.60;99.90
7704;DHT22;3894;49.700;10.770;2023-11-18T05:47:08;0.60;99.90
7704;DHT22;3894;49.700;10.770;2023-11-18T05:49:34;0.70;99.90
7704;DHT22;3894;49.700;10.770;2023-11-18T05:52:00;0.70;99.90
7704;DHT22;3894;49.700;10.770;2023-11-18T05:54:26;0.60;99.90
7704;DHT22;3894;49.700;10.770;2023-11-18T05:56:52;0.60;99.90
7704;DHT22;3894;49.700;10.770;2023-11-18T05:59:19;0.60;99.90
7704;DHT22;3894;49.700;10.770;2023-11-18T06:01:45;0.60;99.90
7704;DHT22;3894;49.700;10.770;2023-11-18T06:04:10;0.60;99.90
7704;DHT22;3894;49.700;10.770;2023-11-18T06:06:36;0.60;99.90
7704;DHT22;3894;49.700;10.770;2023-11-18T06:09:03;0.60;99.90
7704;DHT22;3894;49.700;10.770;2023-11-18T06:11:35;0.60;99.90
7704;DHT22;3894;49.700;10.770;2023-11-18T06:14:00;0.60;99.90
7704;DHT22;3894;49.700;10.770;2023-11-18T06:16:26;0.50;99.90
7704;DHT22;3894;49.700;10.770;2023-11-18T06:18:54;0.50;99.90
7704;DHT22;3894;49.700;10.770;2023-11-18T06:21:21;0.50;99.90
7704;DHT22;3894;49.700;10.770;2023-11-18T06:23:50;0.50;99.90
7704;DHT22;3894;49.700;10.770;2023-11-18T06:26:16;0.60;99.90
7704;DHT22;3894;49.700;10.770;2023-11-18T06:28:44;0.50;99.90
7704;DHT22;3894;49.700;10.770;2023-11-18T06:31:11;0.60;99.90
7704;DHT22;3894;49.700;10.770;2023-11-18T06:33:43;0.60;99.90
7704;DHT22;3894;49.700;10.770;2023-11-18T06:38:45;0.60;99.90
7704;DHT22;3894;49.700;10.770;2023-11-18T06:41:12;0.60;99.90
7704;DHT22;3894;49.700;10.770;2023-11-18T06:43:39;0.60;99.90
7704;DHT22;3894;49.700;10.770;2023-11-18T06:48:52;0.60;99.90
7704;DHT22;3894;49.700;10.770;2023-11-18T06:51:23;0.60;99.90
7704;DHT22;3894;49.700;10.770;2023-11-18T06:53:56;0.70;99.90
7704;DHT22;3894;49.700;10.770;2023-11-18T06:56:24;0.70;99.90
7704;DHT22;3894;49.700;10.770;2023-11-18T06:58:50;0.70;99.90
7704;DHT22;3894;49.700;10.770;2023-11-18T07:01:16;0.80;99.90
7704;DHT22;3894;49.700;10.770;2023-11-18T07:03:42;0.80;99.90
7704;DHT22;3894;49.700;10.770;2023-11-18T07:06:09;0.80;99.90
7704;DHT22;3894;49.700;10.770;2023-11-18T07:08:36;0.90;99.90
7704;DHT22;3894;49.700;10.770;2023-11-18T07:11:05;0.90;99.90
7704;DHT22;3894;49.700;10.770;2023-11-18T07:13:31;0.90;99.90
7704;DHT22;3894;49.700;10.770;2023-11-18T07:16:02;0.80;99.90
7704;DHT22;3894;49.700;10.770;2023-11-18T07:18:28;0.80;99.90
7704;DHT22;3894;49.700;10.770;2023-11-18T07:20:56;0.80;99.90
7704;DHT22;3894;49.700;10.770;2023-11-18T07:23:23;0.90;99.90
7704;DHT22;3894;49.700;10.770;2023-11-18T07:25:48;0.80;99.90
7704;DHT22;3894;49.700;10.770;2023-11-18T07:28:14;0.80;99.90
7704;DHT22;3894;49.700;10.770;2023-11-18T07:30:43;0.90;99.90
7704;DHT22;3894;49.700;10.770;2023-11-18T07:33:16;0.90;99.90
7704;DHT22;3894;49.700;10.770;2023-11-18T07:35:42;1.00;99.90
7704;DHT22;3894;49.700;10.770;2023-11-18T07:38:08;1.00;99.90
7704;DHT22;3894;49.700;10.770;2023-11-18T07:40:34;1.10;99.90
7704;DHT22;3894;49.700;10.770;2023-11-18T07:43:00;1.10;99.90
7704;DHT22;3894;49.700;10.770;2023-11-18T07:45:27;1.10;99.90
7704;DHT22;3894;49.700;10.770;2023-11-18T07:47:54;1.20;99.90
7704;DHT22;3894;49.700;10.770;2023-11-18T07:50:20;1.20;99.90
7704;DHT22;3894;49.700;10.770;2023-11-18T07:52:49;1.30;99.90
7704;DHT22;3894;49.700;10.770;2023-11-18T07:55:16;1.30;99.90
7704;DHT22;3894;49.700;10.770;2023-11-18T07:57:42;1.40;99.90
7704;DHT22;3894;49.700;10.770;2023-11-18T08:00:08;1.40;99.90
7704;DHT22;3894;49.700;10.770;2023-11-18T08:02:37;1.30;99.90
7704;DHT22;3894;49.700;10.770;2023-11-18T08:05:04;1.20;99.90
7704;DHT22;3894;49.700;10.770;2023-11-18T08:07:36;1.20;99.90
7704;DHT22;3894;49.700;10.770;2023-11-18T08:10:03;1.20;99.90
7704;DHT22;3894;49.700;10.770;2023-11-18T08:12:31;1.20;99.90
7704;DHT22;3894;49.700;10.770;2023-11-18T08:14:56;1.30;99.90
7704;DHT22;3894;49.700;10.770;2023-11-18T08:17:23;1.30;99.90
7704;DHT22;3894;49.700;10.770;2023-11-18T08:19:52;1.40;99.90
7704;DHT22;3894;49.700;10.770;2023-11-18T08:22:18;1.40;99.90
7704;DHT22;3894;49.700;10.770;2023-11-18T08:24:47;1.40;99.90
7704;DHT22;3894;49.700;10.770;2023-11-18T08:27:14;1.40;99.90
7704;DHT22;3894;49.700;10.770;2023-11-18T08:29:39;1.50;99.90
7704;DHT22;3894;49.700;10.770;2023-11-18T08:32:06;1.50;99.90
7704;DHT22;3894;49.700;10.770;2023-11-18T08:34:35;1.50;99.90
7704;DHT22;3894;49.700;10.770;2023-11-18T08:37:03;1.50;99.90
7704;DHT22;3894;49.700;10.770;2023-11-18T08:39:29;1.50;99.90
7704;DHT22;3894;49.700;10.770;2023-11-18T08:41:55;1.50;99.90
7704;DHT22;3894;49.700;10.770;2023-11-18T08:44:21;1.60;99.90
7704;DHT22;3894;49.700;10.770;2023-11-18T08:46:48;1.60;99.90
7704;DHT22;3894;49.700;10.770;2023-11-18T08:49:14;1.70;99.90
7704;DHT22;3894;49.700;10.770;2023-11-18T08:51:49;1.80;99.90
7704;DHT22;3894;49.700;10.770;2023-11-18T08:54:22;1.80;99.90
7704;DHT22;3894;49.700;10.770;2023-11-18T08:56:54;1.90;99.90
7704;DHT22;3894;49.700;10.770;2023-11-18T08:59:21;2.00;99.90
7704;DHT22;3894;49.700;10.770;2023-11-18T09:01:53;2.00;99.90
7704;DHT22;3894;49.700;10.770;2023-11-18T09:04:27;2.00;99.90
7704;DHT22;3894;49.700;10.770;2023-11-18T09:06:53;2.00;99.90
7704;DHT22;3894;49.700;10.770;2023-11-18T09:09:22;2.10;99.90
7704;DHT22;3894;49.700;10.770;2023-11-18T09:11:55;2.20;99.90
7704;DHT22;3894;49.700;10.770;2023-11-18T09:14:25;2.30;99.90
7704;DHT22;3894;49.700;10.770;2023-11-18T09:16:52;2.40;99.90
7704;DHT22;3894;49.700;10.770;2023-11-18T09:19:20;2.40;99.90
7704;DHT22;3894;49.700;10.770;2023-11-18T09:21:47;2.40;99.90
7704;DHT22;3894;49.700;10.770;2023-11-18T09:24:12;2.40;99.90
7704;DHT22;3894;49.700;10.770;2023-11-18T09:26:40;2.40;99.90
7704;DHT22;3894;49.700;10.770;2023-11-18T09:29:06;2.30;99.90
7704;DHT22;3894;49.700;10.770;2023-11-18T09:31:52;2.40;99.90
7704;DHT22;3894;49.700;10.770;2023-11-18T09:34:18;2.40;99.90
7704;DHT22;3894;49.700;10.770;2023-11-18T09:36:52;2.50;99.90
7704;DHT22;3894;49.700;10.770;2023-11-18T09:39:18;2.60;99.90
7704;DHT22;3894;49.700;10.770;2023-11-18T09:41:57;2.60;99.90
7704;DHT22;3894;49.700;10.770;2023-11-18T09:44:24;2.70;99.90
7704;DHT22;3894;49.700;10.770;2023-11-18T09:46:57;2.80;99.90
7704;DHT22;3894;49.700;10.770;2023-11-18T09:49:32;2.90;99.90
7704;DHT22;3894;49.700;10.770;2023-11-18T09:52:05;2.90;99.90
7704;DHT22;3894;49.700;10.770;2023-11-18T09:54:49;3.10;99.90
7704;DHT22;3894;49.700;10.770;2023-11-18T10:03:14;3.30;99.90
7704;DHT22;3894;49.700;10.770;2023-11-18T10:05:41;3.40;99.90
7704;DHT22;3894;49.700;10.770;2023-11-18T10:08:07;3.50;99.90
7704;DHT22;3894;49.700;10.770;2023-11-18T10:10:34;3.40;99.90
7704;DHT22;3894;49.700;10.770;2023-11-18T10:13:03;3.40;99.90
7704;DHT22;3894;49.700;10.770;2023-11-18T10:15:47;3.40;99.90
7704;DHT22;3894;49.700;10.770;2023-11-18T10:18:14;3.30;99.90
7704;DHT22;3894;49.700;10.770;2023-11-18T10:20:48;3.40;99.90
7704;DHT22;3894;49.700;10.770;2023-11-18T10:23:18;3.30;99.90
7704;DHT22;3894;49.700;10.770;2023-11-18T10:30:55;2.90;99.90
7704;DHT22;3894;49.700;10.770;2023-11-18T10:33:26;2.80;99.90
7704;DHT22;3894;49.700;10.770;2023-11-18T10:35:59;2.70;99.90
7704;DHT22;3894;49.700;10.770;2023-11-18T10:38:32;2.70;99.90
7704;DHT22;3894;49.700;10.770;2023-11-18T10:41:02;2.80;99.90
7704;DHT22;3894;49.700;10.770;2023-11-18T10:43:28;2.70;99.90
7704;DHT22;3894;49.700;10.770;2023-11-18T10:46:08;2.70;99.90
7704;DHT22;3894;49.700;10.770;2023-11-18T10:48:44;2.60;99.90
7704;DHT22;3894;49.700;10.770;2023-11-18T10:51:15;2.70;99.90
7704;DHT22;3894;49.700;10.770;2023-11-18T10:53:42;2.80;99.90
7704;DHT22;3894;49.700;10.770;2023-11-18T10:56:19;3.00;99.90
7704;DHT22;3894;49.700;10.770;2023-11-18T10:58:50;3.10;99.90
7704;DHT22;3894;49.700;10.770;2023-11-18T11:01:30;3.10;99.90
7704;DHT22;3894;49.700;10.770;2023-11-18T11:03:57;3.20;99.90
7704;DHT22;3894;49.700;10.770;2023-11-18T11:06:24;3.20;99.90
7704;DHT22;3894;49.700;10.770;2023-11-18T11:08:54;3.30;99.90
7704;DHT22;3894;49.700;10.770;2023-11-18T11:11:21;3.30;99.90
7704;DHT22;3894;49.700;10.770;2023-11-18T11:13:58;3.40;99.90
7704;DHT22;3894;49.700;10.770;2023-11-18T11:16:37;3.40;99.90
7704;DHT22;3894;49.700;10.770;2023-11-18T11:19:16;3.40;99.90
7704;DHT22;3894;49.700;10.770;2023-11-18T11:21:55;3.50;99.90
7704;DHT22;3894;49.700;10.770;2023-11-18T11:27:38;3.70;99.90
7704;DHT22;3894;49.700;10.770;2023-11-18T11:30:28;3.90;99.90
7704;DHT22;3894;49.700;10.770;2023-11-18T11:33:08;4.10;99.90
7704;DHT22;3894;49.700;10.770;2023-11-18T11:35:40;4.10;99.90
7704;DHT22;3894;49.700;10.770;2023-11-18T11:38:11;4.10;99.90
7704;DHT22;3894;49.700;10.770;2023-11-18T11:40:41;4.10;99.90
7704;DHT22;3894;49.700;10.770;2023-11-18T11:43:08;4.00;99.90
7704;DHT22;3894;49.700;10.770;2023-11-18T11:45:41;4.00;99.90
7704;DHT22;3894;49.700;10.770;2023-11-18T11:48:09;4.10;99.90
7704;DHT22;3894;49.700;10.770;2023-11-18T11:53:44;4.30;99.90
7704;DHT22;3894;49.700;10.770;2023-11-18T11:56:11;4.30;99.90
7704;DHT22;3894;49.700;10.770;2023-11-18T11:58:41;4.40;99.90
7704;DHT22;3894;49.700;10.770;2023-11-18T12:01:25;4.40;99.90
7704;DHT22;3894;49.700;10.770;2023-11-18T12:03:56;4.40;99.90
7704;DHT22;3894;49.700;10.770;2023-11-18T12:06:26;4.50;99.90
7704;DHT22;3894;49.700;10.770;2023-11-18T12:08:57;4.50;99.90
7704;DHT22;3894;49.700;10.770;2023-11-18T12:11:23;4.50;99.90
7704;DHT22;3894;49.700;10.770;2023-11-18T12:14:05;4.50;99.90
7704;DHT22;3894;49.700;10.770;2023-11-18T12:19:33;4.60;99.90
7704;DHT22;3894;49.700;10.770;2023-11-18T12:22:18;4.60;99.90
7704;DHT22;3894;49.700;10.770;2023-11-18T12:35:25;4.90;99.90
7704;DHT22;3894;49.700;10.770;2023-11-18T12:38:58;5.00;99.90
7704;DHT22;3894;49.700;10.770;2023-11-18T12:41:01;5.00;99.90
7704;DHT22;3894;49.700;10.770;2023-11-18T12:47:03;5.10;99.90
7704;DHT22;3894;49.700;10.770;2023-11-18T12:49:45;5.10;99.90
7704;DHT22;3894;49.700;10.770;2023-11-18T12:52:15;5.20;99.90
7704;DHT22;3894;49.700;10.770;2023-11-18T12:54:44;5.20;99.90
7704;DHT22;3894;49.700;10.770;2023-11-18T12:57:22;5.10;99.90
7704;DHT22;3894;49.700;10.770;2023-11-18T12:59:51;5.10;99.90
7704;DHT22;3894;49.700;10.770;2023-11-18T13:02:17;5.10;99.90
7704;DHT22;3894;49.700;10.770;2023-11-18T13:04:46;5.10;99.90
7704;DHT22;3894;49.700;10.770;2023-11-18T13:07:19;5.10;99.90
7704;DHT22;3894;49.700;10.770;2023-11-18T13:09:46;5.10;99.90
7704;DHT22;3894;49.700;10.770;2023-11-18T13:12:13;5.10;99.90
7704;DHT22;3894;49.700;10.770;2023-11-18T13:14:44;5.10;99.90
7704;DHT22;3894;49.700;10.770;2023-11-18T13:17:15;5.10;99.90
7704;DHT22;3894;49.700;10.770;2023-11-18T13:19:43;5.10;99.90
7704;DHT22;3894;49.700;10.770;2023-11-18T13:22:10;5.10;99.90
7704;DHT22;3894;49.700;10.770;2023-11-18T13:24:37;5.10;99.90
7704;DHT22;3894;49.700;10.770;2023-11-18T13:27:07;5.10;99.90
7704;DHT22;3894;49.700;10.770;2023-11-18T13:29:36;5.10;99.90
7704;DHT22;3894;49.700;10.770;2023-11-18T13:32:02;5.20;99.90
7704;DHT22;3894;49.700;10.770;2023-11-18T13:34:35;5.20;99.90
7704;DHT22;3894;49.700;10.770;2023-11-18T13:37:03;5.20;99.90
7704;DHT22;3894;49.700;10.770;2023-11-18T13:39:29;5.20;99.90
7704;DHT22;3894;49.700;10.770;2023-11-18T13:41:57;5.20;99.90
7704;DHT22;3894;49.700;10.770;2023-11-18T13:44:38;5.20;99.90
7704;DHT22;3894;49.700;10.770;2023-11-18T13:47:07;5.20;99.90
7704;DHT22;3894;49.700;10.770;2023-11-18T13:49:34;5.20;99.90
7704;DHT22;3894;49.700;10.770;2023-11-18T13:52:00;5.20;99.90
7704;DHT22;3894;49.700;10.770;2023-11-18T13:54:30;5.20;99.90
7704;DHT22;3894;49.700;10.770;2023-11-18T13:56:58;5.20;99.90
7704;DHT22;3894;49.700;10.770;2023-11-18T13:59:27;5.20;99.90
7704;DHT22;3894;49.700;10.770;2023-11-18T14:01:57;5.20;99.90
7704;DHT22;3894;49.700;10.770;2023-11-18T14:04:29;5.20;99.90
7704;DHT22;3894;49.700;10.770;2023-11-18T14:07:00;5.20;99.90
7704;DHT22;3894;49.700;10.770;2023-11-18T14:09:35;5.20;99.90
7704;DHT22;3894;49.700;10.770;2023-11-18T14:12:08;5.30;99.90
7704;DHT22;3894;49.700;10.770;2023-11-18T14:14:34;5.30;99.90
7704;DHT22;3894;49.700;10.770;2023-11-18T14:16:59;5.30;99.90
7704;DHT22;3894;49.700;10.770;2023-11-18T14:19:25;5.20;99.90
7704;DHT22;3894;49.700;10.770;2023-11-18T14:21:54;5.30;99.90
7704;DHT22;3894;49.700;10.770;2023-11-18T14:24:21;5.30;99.90
7704;DHT22;3894;49.700;10.770;2023-11-18T14:26:54;5.30;99.90
7704;DHT22;3894;49.700;10.770;2023-11-18T14:29:19;5.20;99.90
7704;DHT22;3894;49.700;10.770;2023-11-18T14:31:46;5.20;99.90
7704;DHT22;3894;49.700;10.770;2023-11-18T14:34:13;5.20;99.90
7704;DHT22;3894;49.700;10.770;2023-11-18T14:36:39;5.20;99.90
7704;DHT22;3894;49.700;10.770;2023-11-18T14:39:05;5.20;99.90
7704;DHT22;3894;49.700;10.770;2023-11-18T14:41:35;5.20;99.90
7704;DHT22;3894;49.700;10.770;2023-11-18T14:44:00;5.20;99.90
7704;DHT22;3894;49.700;10.770;2023-11-18T14:46:29;5.20;99.90
7704;DHT22;3894;49.700;10.770;2023-11-18T14:48:56;5.20;99.90
7704;DHT22;3894;49.700;10.770;2023-11-18T14:51:22;5.20;99.90
7704;DHT22;3894;49.700;10.770;2023-11-18T14:53:48;5.20;99.90
7704;DHT22;3894;49.700;10.770;2023-11-18T14:56:15;5.20;99.90
7704;DHT22;3894;49.700;10.770;2023-11-18T14:58:41;5.10;99.90
7704;DHT22;3894;49.700;10.770;2023-11-18T15:01:06;5.10;99.90
7704;DHT22;3894;49.700;10.770;2023-11-18T15:03:36;5.10;99.90
7704;DHT22;3894;49.700;10.770;2023-11-18T15:06:02;5.10;99.90
7704;DHT22;3894;49.700;10.770;2023-11-18T15:08:29;5.10;99.90
7704;DHT22;3894;49.700;10.770;2023-11-18T15:10:56;5.10;99.90
7704;DHT22;3894;49.700;10.770;2023-11-18T15:13:24;5.10;99.90
7704;DHT22;3894;49.700;10.770;2023-11-18T15:15:50;5.10;99.90
7704;DHT22;3894;49.700;10.770;2023-11-18T15:18:16;5.10;99.90
7704;DHT22;3894;49.700;10.770;2023-11-18T15:20:52;5.10;99.90
7704;DHT22;3894;49.700;10.770;2023-11-18T15:23:18;5.10;99.90
7704;DHT22;3894;49.700;10.770;2023-11-18T15:25:45;5.10;99.90
7704;DHT22;3894;49.700;10.770;2023-11-18T15:28:11;5.10;99.90
7704;DHT22;3894;49.700;10.770;2023-11-18T15:30:37;5.10;99.90
7704;DHT22;3894;49.700;10.770;2023-11-18T15:33:03;5.10;99.90
7704;DHT22;3894;49.700;10.770;2023-11-18T15:35:29;5.10;99.90
7704;DHT22;3894;49.700;10.770;2023-11-18T15:37:54;5.10;99.90
7704;DHT22;3894;49.700;10.770;2023-11-18T15:40:21;5.10;99.90
7704;DHT22;3894;49.700;10.770;2023-11-18T15:42:50;5.10;99.90
7704;DHT22;3894;49.700;10.770;2023-11-18T15:45:18;5.10;99.90
7704;DHT22;3894;49.700;10.770;2023-11-18T15:47:44;5.10;99.90
7704;DHT22;3894;49.700;10.770;2023-11-18T15:50:11;5.10;99.90
7704;DHT22;3894;49.700;10.770;2023-11-18T15:52:50;5.10;99.90
7704;DHT22;3894;49.700;10.770;2023-11-18T15:55:17;5.10;99.90
7704;DHT22;3894;49.700;10.770;2023-11-18T15:57:45;5.10;99.90
7704;DHT22;3894;49.700;10.770;2023-11-18T16:00:18;5.10;99.90
7704;DHT22;3894;49.700;10.770;2023-11-18T16:02:57;5.10;99.90
7704;DHT22;3894;49.700;10.770;2023-11-18T16:05:24;5.10;99.90
7704;DHT22;3894;49.700;10.770;2023-11-18T16:07:52;5.00;99.90
7704;DHT22;3894;49.700;10.770;2023-11-18T16:10:18;5.00;99.90
7704;DHT22;3894;49.700;10.770;2023-11-18T16:12:50;5.00;99.90
7704;DHT22;3894;49.700;10.770;2023-11-18T16:15:17;5.00;99.90
7704;DHT22;3894;49.700;10.770;2023-11-18T16:17:45;5.10;99.90
7704;DHT22;3894;49.700;10.770;2023-11-18T16:20:12;5.10;99.90
7704;DHT22;3894;49.700;10.770;2023-11-18T16:22:44;5.10;99.90
7704;DHT22;3894;49.700;10.770;2023-11-18T16:27:49;5.10;99.90
7704;DHT22;3894;49.700;10.770;2023-11-18T16:30:17;5.10;99.90
7704;DHT22;3894;49.700;10.770;2023-11-18T16:32:44;5.10;99.90
7704;DHT22;3894;49.700;10.770;2023-11-18T16:35:12;5.10;99.90
7704;DHT22;3894;49.700;10.770;2023-11-18T16:37:41;5.10;99.90
7704;DHT22;3894;49.700;10.770;2023-11-18T16:40:09;5.10;99.90
7704;DHT22;3894;49.700;10.770;2023-11-18T16:42:52;5.10;99.90
7704;DHT22;3894;49.700;10.770;2023-11-18T16:45:20;5.10;99.90
7704;DHT22;3894;49.700;10.770;2023-11-18T16:47:47;5.10;99.90
7704;DHT22;3894;49.700;10.770;2023-11-18T16:50:17;5.10;99.90
7704;DHT22;3894;49.700;10.770;2023-11-18T16:52:42;5.10;99.90